Terminal Aerodrome Forecast
Issued by NWS Detroit/Pontiac, MI

Home | Current Version | Previous Version | Text Only | Print | Product List | Glossary On
Versions: 1 2 3 4 5 6 7 8 9 10 11 12 13
000
FTUS43 KDTX 130800 AAA
TAFFNT
TAF AMD
KFNT 130805Z 1308/1406 23010KT 5SM -RA BR BKN013 OVC030
     FM131000 26012KT P6SM BKN018 OVC080
     FM131500 27011KT P6SM BKN045
     FM132000 26008KT P6SM BKN060
     FM140100 28004KT P6SM SCT080=

USA.gov is the U.S. government's official web portal to all federal, state and local government web resources and services.